CPA913 VHHH-RPLL
Flight info
| Callsign | CPA913 |
|---|---|
| Flight time | N/A |
| Altitude | 37000 |
| Route | DALOL DCT NOMAN A461 CAB CAB7R |
| Aircraft | B772/H-SDE2E3FGHIJ5LORVWXY/LB1D1 |
Departure
| Time | N/A |
|---|---|
| Airport | Hong Kong International Airport (VHHH) |
Arrival
| Time | 2026-05-06 15:01 |
|---|---|
| Airport | Ninoy Aquino International Airport (RPLL) |
| Time | Latitude | Longitude | Altitude | Speed | Heading |
|---|---|---|---|---|---|
| 2026-05-06 14:28 | 16.39585 | 120.53477 | 36971 ft | 492 kts | 154° |
| 2026-05-06 14:28 | 16.36600 | 120.55131 | 36964 ft | 492 kts | 154° |
| 2026-05-06 14:28 | 16.30512 | 120.58463 | 36971 ft | 492 kts | 154° |
| 2026-05-06 14:29 | 16.24513 | 120.61713 | 36960 ft | 492 kts | 155° |
| 2026-05-06 14:29 | 16.18451 | 120.64978 | 36959 ft | 491 kts | 155° |
| 2026-05-06 14:30 | 16.12347 | 120.68253 | 36936 ft | 490 kts | 155° |
| 2026-05-06 14:30 | 16.08345 | 120.70397 | 36924 ft | 489 kts | 155° |
| 2026-05-06 14:31 | 16.05338 | 120.72006 | 36918 ft | 489 kts | 155° |
| 2026-05-06 14:31 | 15.99255 | 120.75258 | 36890 ft | 490 kts | 155° |
| 2026-05-06 14:32 | 15.93229 | 120.78476 | 36882 ft | 489 kts | 155° |
| 2026-05-06 14:32 | 15.87198 | 120.81694 | 36887 ft | 488 kts | 155° |
| 2026-05-06 14:33 | 15.81158 | 120.84914 | 36841 ft | 489 kts | 155° |
| 2026-05-06 14:33 | 15.75127 | 120.88127 | 36818 ft | 489 kts | 155° |
| 2026-05-06 14:34 | 15.69086 | 120.91343 | 36819 ft | 489 kts | 155° |
| 2026-05-06 14:34 | 15.63007 | 120.94576 | 36245 ft | 493 kts | 155° |
| 2026-05-06 14:35 | 15.60003 | 120.96175 | 35590 ft | 490 kts | 155° |
| 2026-05-06 14:35 | 15.56985 | 120.97778 | 34930 ft | 485 kts | 155° |
| 2026-05-06 14:35 | 15.53966 | 120.99071 | 30561 ft | 417 kts | 165° |
| 2026-05-06 14:35 | 15.51181 | 120.99638 | 30163 ft | 403 kts | 176° |
| 2026-05-06 14:36 | 15.48424 | 120.99702 | 30165 ft | 385 kts | 184° |
| 2026-05-06 14:36 | 15.45813 | 120.99461 | 30135 ft | 372 kts | 189° |
| 2026-05-06 14:36 | 15.43218 | 120.99007 | 29901 ft | 390 kts | 193° |
| 2026-05-06 14:36 | 15.40508 | 120.98383 | 29445 ft | 403 kts | 195° |
| 2026-05-06 14:37 | 15.37814 | 120.97639 | 28964 ft | 401 kts | 197° |
| 2026-05-06 14:37 | 15.35182 | 120.96820 | 28519 ft | 397 kts | 198° |
| 2026-05-06 14:37 | 15.32569 | 120.95942 | 28083 ft | 393 kts | 199° |
| 2026-05-06 14:37 | 15.29989 | 120.95034 | 27657 ft | 389 kts | 200° |
| 2026-05-06 14:38 | 15.27455 | 120.94112 | 27236 ft | 385 kts | 200° |
| 2026-05-06 14:38 | 15.24920 | 120.93167 | 26810 ft | 381 kts | 200° |
| 2026-05-06 14:38 | 15.22448 | 120.92233 | 26401 ft | 377 kts | 201° |
| 2026-05-06 14:38 | 15.19997 | 120.91296 | 25998 ft | 374 kts | 201° |
| 2026-05-06 14:39 | 15.17572 | 120.90362 | 25598 ft | 371 kts | 201° |
| 2026-05-06 14:39 | 15.15212 | 120.89449 | 25215 ft | 368 kts | 201° |
| 2026-05-06 14:39 | 15.12793 | 120.88509 | 24824 ft | 365 kts | 201° |
| 2026-05-06 14:39 | 15.10456 | 120.87598 | 24445 ft | 362 kts | 201° |
| 2026-05-06 14:40 | 15.08104 | 120.86681 | 24060 ft | 359 kts | 201° |
| 2026-05-06 14:40 | 15.05760 | 120.85765 | 23675 ft | 357 kts | 201° |
| 2026-05-06 14:40 | 15.03438 | 120.84857 | 23292 ft | 355 kts | 201° |
| 2026-05-06 14:40 | 15.01151 | 120.83962 | 22918 ft | 353 kts | 201° |
| 2026-05-06 14:41 | 14.98853 | 120.83064 | 22539 ft | 351 kts | 201° |
| 2026-05-06 14:41 | 14.96584 | 120.82176 | 22166 ft | 349 kts | 201° |
| 2026-05-06 14:41 | 14.94298 | 120.81282 | 21796 ft | 347 kts | 201° |
| 2026-05-06 14:41 | 14.92061 | 120.80409 | 21422 ft | 346 kts | 201° |
| 2026-05-06 14:42 | 14.89821 | 120.79535 | 21042 ft | 344 kts | 201° |
| 2026-05-06 14:42 | 14.87577 | 120.78660 | 20667 ft | 343 kts | 200° |
| 2026-05-06 14:42 | 14.85357 | 120.77794 | 20297 ft | 341 kts | 200° |
| 2026-05-06 14:42 | 14.83131 | 120.76926 | 19932 ft | 339 kts | 200° |
| 2026-05-06 14:43 | 14.80910 | 120.76060 | 19564 ft | 338 kts | 200° |
| 2026-05-06 14:43 | 14.78732 | 120.75211 | 19195 ft | 337 kts | 200° |
| 2026-05-06 14:43 | 14.76553 | 120.74362 | 18829 ft | 335 kts | 200° |
| 2026-05-06 14:43 | 14.74348 | 120.73503 | 18457 ft | 334 kts | 200° |
| 2026-05-06 14:44 | 14.72194 | 120.72664 | 18091 ft | 333 kts | 200° |
| 2026-05-06 14:44 | 14.70012 | 120.71814 | 17726 ft | 332 kts | 200° |
| 2026-05-06 14:44 | 14.67868 | 120.70979 | 17366 ft | 330 kts | 200° |
| 2026-05-06 14:45 | 14.63546 | 120.69375 | 16629 ft | 327 kts | 190° |
| 2026-05-06 14:45 | 14.61333 | 120.69331 | 16262 ft | 323 kts | 168° |
| 2026-05-06 14:45 | 14.59214 | 120.70097 | 15907 ft | 319 kts | 153° |
| 2026-05-06 14:45 | 14.57265 | 120.71137 | 15559 ft | 318 kts | 150° |
| 2026-05-06 14:46 | 14.55262 | 120.72115 | 15187 ft | 318 kts | 163° |
| 2026-05-06 14:46 | 14.53075 | 120.72298 | 14827 ft | 319 kts | 187° |
| 2026-05-06 14:46 | 14.50965 | 120.71555 | 14459 ft | 320 kts | 211° |
| 2026-05-06 14:46 | 14.49307 | 120.70036 | 14094 ft | 321 kts | 230° |
| 2026-05-06 14:47 | 14.48016 | 120.68177 | 13734 ft | 322 kts | 237° |
| 2026-05-06 14:47 | 14.46856 | 120.66212 | 13373 ft | 322 kts | 239° |
| 2026-05-06 14:47 | 14.45733 | 120.64215 | 13011 ft | 321 kts | 239° |
| 2026-05-06 14:47 | 14.44617 | 120.62212 | 12658 ft | 321 kts | 239° |
| 2026-05-06 14:48 | 14.43505 | 120.60254 | 12313 ft | 320 kts | 238° |
| 2026-05-06 14:48 | 14.42370 | 120.58275 | 11978 ft | 319 kts | 238° |
| 2026-05-06 14:48 | 14.41238 | 120.56300 | 11622 ft | 318 kts | 238° |
| 2026-05-06 14:48 | 14.40119 | 120.54353 | 11258 ft | 318 kts | 237° |
| 2026-05-06 14:49 | 14.38688 | 120.52671 | 10853 ft | 313 kts | 214° |
| 2026-05-06 14:49 | 14.36736 | 120.51720 | 10337 ft | 308 kts | 190° |
| 2026-05-06 14:49 | 14.34643 | 120.51678 | 9809 ft | 304 kts | 166° |
| 2026-05-06 14:49 | 14.32702 | 120.52483 | 9311 ft | 299 kts | 149° |
| 2026-05-06 14:50 | 14.30940 | 120.53528 | 8870 ft | 290 kts | 148° |
| 2026-05-06 14:50 | 14.29215 | 120.54575 | 8542 ft | 283 kts | 147° |
| 2026-05-06 14:50 | 14.27524 | 120.55598 | 8163 ft | 284 kts | 147° |
| 2026-05-06 14:50 | 14.25823 | 120.56624 | 7782 ft | 285 kts | 147° |
| 2026-05-06 14:51 | 14.24104 | 120.57656 | 7419 ft | 285 kts | 147° |
| 2026-05-06 14:51 | 14.22510 | 120.58858 | 7065 ft | 280 kts | 129° |
| 2026-05-06 14:51 | 14.21599 | 120.60562 | 6745 ft | 272 kts | 103° |
| 2026-05-06 14:51 | 14.21566 | 120.62443 | 6471 ft | 257 kts | 75° |
| 2026-05-06 14:52 | 14.22399 | 120.64019 | 6255 ft | 250 kts | 47° |
| 2026-05-06 14:52 | 14.23831 | 120.65010 | 6024 ft | 250 kts | 29° |
| 2026-05-06 14:52 | 14.25389 | 120.65771 | 5808 ft | 247 kts | 27° |
| 2026-05-06 14:52 | 14.26929 | 120.66509 | 5615 ft | 243 kts | 27° |
| 2026-05-06 14:53 | 14.28468 | 120.67241 | 5437 ft | 238 kts | 27° |
| 2026-05-06 14:53 | 14.29945 | 120.67946 | 5277 ft | 233 kts | 30° |
| 2026-05-06 14:53 | 14.31242 | 120.68887 | 5111 ft | 225 kts | 44° |
| 2026-05-06 14:53 | 14.32337 | 120.69997 | 4955 ft | 220 kts | 50° |
| 2026-05-06 14:54 | 14.33319 | 120.71209 | 4923 ft | 218 kts | 54° |
| 2026-05-06 14:54 | 14.34200 | 120.72483 | 4919 ft | 222 kts | 58° |
| 2026-05-06 14:54 | 14.35044 | 120.73840 | 4911 ft | 222 kts | 59° |
| 2026-05-06 14:54 | 14.35838 | 120.75184 | 4908 ft | 221 kts | 60° |
| 2026-05-06 14:55 | 14.36629 | 120.76559 | 4912 ft | 221 kts | 61° |
| 2026-05-06 14:55 | 14.37409 | 120.77935 | 4709 ft | 228 kts | 61° |
| 2026-05-06 14:55 | 14.38207 | 120.79354 | 4427 ft | 230 kts | 61° |
| 2026-05-06 14:55 | 14.39011 | 120.80788 | 4147 ft | 230 kts | 62° |
| 2026-05-06 14:56 | 14.39802 | 120.82197 | 3873 ft | 223 kts | 62° |
| 2026-05-06 14:56 | 14.40564 | 120.83553 | 3602 ft | 216 kts | 62° |
| 2026-05-06 14:56 | 14.41299 | 120.84863 | 3337 ft | 210 kts | 62° |
| 2026-05-06 14:56 | 14.42016 | 120.86144 | 3073 ft | 204 kts | 62° |
| 2026-05-06 14:57 | 14.42693 | 120.87352 | 2822 ft | 183 kts | 62° |
| 2026-05-06 14:57 | 14.43301 | 120.88438 | 2614 ft | 166 kts | 62° |
| 2026-05-06 14:57 | 14.43845 | 120.89409 | 2403 ft | 150 kts | 62° |
| 2026-05-06 14:57 | 14.44349 | 120.90311 | 2212 ft | 142 kts | 63° |
| 2026-05-06 14:58 | 14.44840 | 120.91193 | 2027 ft | 141 kts | 63° |
| 2026-05-06 14:58 | 14.45332 | 120.92072 | 1836 ft | 140 kts | 63° |
| 2026-05-06 14:58 | 14.45817 | 120.92939 | 1650 ft | 139 kts | 63° |
| 2026-05-06 14:58 | 14.46297 | 120.93797 | 1462 ft | 138 kts | 63° |
| 2026-05-06 14:59 | 14.46780 | 120.94659 | 1277 ft | 138 kts | 63° |
| 2026-05-06 14:59 | 14.47258 | 120.95516 | 1100 ft | 138 kts | 63° |
| 2026-05-06 14:59 | 14.47742 | 120.96381 | 919 ft | 138 kts | 62° |
| 2026-05-06 14:59 | 14.48248 | 120.97228 | 714 ft | 140 kts | 62° |
| 2026-05-06 15:00 | 14.48741 | 120.98120 | 566 ft | 141 kts | 64° |
| 2026-05-06 15:00 | 14.49232 | 120.99000 | 345 ft | 144 kts | 63° |
| 2026-05-06 15:00 | 14.49710 | 120.99873 | 169 ft | 139 kts | 63° |
| 2026-05-06 15:00 | 14.50167 | 121.00708 | 88 ft | 124 kts | 60° |
| 2026-05-06 15:01 | 14.50508 | 121.01321 | 88 ft | 72 kts | 60° |
| 2026-05-06 15:01 | 14.50727 | 121.01714 | 88 ft | 57 kts | 60° |
| 2026-05-06 15:01 | 14.50914 | 121.02048 | 88 ft | 50 kts | 58° |
| 2026-05-06 15:01 | 14.51096 | 121.02263 | 88 ft | 17 kts | 43° |
| 2026-05-06 15:02 | 14.51185 | 121.02277 | 88 ft | 14 kts | 292° |
| 2026-05-06 15:02 | 14.51152 | 121.02190 | 88 ft | 6 kts | 240° |
| 2026-05-06 15:02 | 14.51125 | 121.02142 | 88 ft | 9 kts | 240° |
| 2026-05-06 15:02 | 14.51094 | 121.02087 | 88 ft | 0 kts | 240° |
| 2026-05-06 15:04 | 14.51086 | 121.02071 | 88 ft | 7 kts | 241° |
| 2026-05-06 15:05 | 14.51067 | 121.01993 | 88 ft | 15 kts | 297° |
| 2026-05-06 15:05 | 14.51154 | 121.01901 | 88 ft | 19 kts | 316° |
| 2026-05-06 15:05 | 14.51249 | 121.01805 | 88 ft | 10 kts | 315° |
| 2026-05-06 15:05 | 14.51306 | 121.01747 | 88 ft | 13 kts | 315° |
| 2026-05-06 15:06 | 14.51380 | 121.01670 | 88 ft | 17 kts | 314° |
| 2026-05-06 15:06 | 14.51473 | 121.01573 | 88 ft | 20 kts | 314° |
| 2026-05-06 15:06 | 14.51564 | 121.01477 | 88 ft | 11 kts | 316° |
| 2026-05-06 15:06 | 14.51604 | 121.01467 | 88 ft | 4 kts | 26° |
| 2026-05-06 15:07 | 14.51630 | 121.01489 | 88 ft | 1 kts | 42° |
| 2026-05-06 15:07 | 14.51644 | 121.01502 | 88 ft | 4 kts | 45° |
| 2026-05-06 15:07 | 14.51655 | 121.01512 | 88 ft | 0 kts | 44° |